sensor_id;sensor_type;location;lat;lon;timestamp;pressure;altitude;pressure_sealevel;temperature;humidity
5812;BME280;2932;52.400;9.558;2023-04-29T00:00:06;100393.88;;;14.50;84.86
5812;BME280;2932;52.400;9.558;2023-04-29T00:02:32;100384.06;;;14.60;84.26
5812;BME280;2932;52.400;9.558;2023-04-29T00:04:57;100389.09;;;14.51;84.63
5812;BME280;2932;52.400;9.558;2023-04-29T00:07:23;100391.16;;;14.27;85.15
5812;BME280;2932;52.400;9.558;2023-04-29T00:09:48;100383.41;;;14.14;85.91
5812;BME280;2932;52.400;9.558;2023-04-29T00:12:13;100385.59;;;13.97;86.23
5812;BME280;2932;52.400;9.558;2023-04-29T00:14:39;100383.91;;;14.19;85.73
5812;BME280;2932;52.400;9.558;2023-04-29T00:17:04;100390.00;;;14.02;86.23
5812;BME280;2932;52.400;9.558;2023-04-29T00:19:29;100392.13;;;14.39;85.07
5812;BME280;2932;52.400;9.558;2023-04-29T00:21:55;100388.53;;;14.68;84.17
5812;BME280;2932;52.400;9.558;2023-04-29T00:24:20;100384.53;;;14.35;85.03
5812;BME280;2932;52.400;9.558;2023-04-29T00:26:46;100388.06;;;14.32;84.96
5812;BME280;2932;52.400;9.558;2023-04-29T00:29:11;100398.69;;;14.53;84.53
5812;BME280;2932;52.400;9.558;2023-04-29T00:31:36;100393.53;;;14.55;84.12
5812;BME280;2932;52.400;9.558;2023-04-29T00:34:02;100381.38;;;14.41;84.17
5812;BME280;2932;52.400;9.558;2023-04-29T00:36:28;100393.81;;;14.47;84.25
5812;BME280;2932;52.400;9.558;2023-04-29T00:38:53;100398.38;;;14.32;84.51
5812;BME280;2932;52.400;9.558;2023-04-29T00:41:19;100396.47;;;14.40;84.66
5812;BME280;2932;52.400;9.558;2023-04-29T00:43:45;100404.09;;;14.43;84.52
5812;BME280;2932;52.400;9.558;2023-04-29T00:46:10;100408.16;;;14.49;84.32
5812;BME280;2932;52.400;9.558;2023-04-29T00:48:35;100407.88;;;14.27;85.16
5812;BME280;2932;52.400;9.558;2023-04-29T00:51:01;100416.97;;;13.98;85.84
5812;BME280;2932;52.400;9.558;2023-04-29T00:53:28;100407.16;;;14.08;86.25
5812;BME280;2932;52.400;9.558;2023-04-29T00:55:54;100418.47;;;14.18;85.87
5812;BME280;2932;52.400;9.558;2023-04-29T00:58:20;100420.53;;;14.25;85.91
5812;BME280;2932;52.400;9.558;2023-04-29T01:00:47;100423.69;;;14.23;85.99
5812;BME280;2932;52.400;9.558;2023-04-29T01:03:12;100425.09;;;14.10;86.18
5812;BME280;2932;52.400;9.558;2023-04-29T01:05:38;100428.09;;;13.98;86.94
5812;BME280;2932;52.400;9.558;2023-04-29T01:08:28;100423.47;;;14.09;86.94
5812;BME280;2932;52.400;9.558;2023-04-29T01:11:08;100433.50;;;14.14;86.92
5812;BME280;2932;52.400;9.558;2023-04-29T01:13:56;100433.44;;;14.10;87.03
5812;BME280;2932;52.400;9.558;2023-04-29T01:16:28;100442.41;;;14.00;86.95
5812;BME280;2932;52.400;9.558;2023-04-29T01:19:01;100447.97;;;14.00;87.06
5812;BME280;2932;52.400;9.558;2023-04-29T01:21:31;100439.84;;;13.88;87.85
5812;BME280;2932;52.400;9.558;2023-04-29T01:23:56;100440.66;;;13.88;87.97
5812;BME280;2932;52.400;9.558;2023-04-29T01:26:23;100448.31;;;13.95;87.79
5812;BME280;2932;52.400;9.558;2023-04-29T01:29:13;100449.25;;;13.80;88.38
5812;BME280;2932;52.400;9.558;2023-04-29T01:32:06;100444.00;;;13.75;88.47
5812;BME280;2932;52.400;9.558;2023-04-29T01:34:57;100450.75;;;13.74;88.46
5812;BME280;2932;52.400;9.558;2023-04-29T01:37:27;100450.06;;;13.80;88.48
5812;BME280;2932;52.400;9.558;2023-04-29T01:40:08;100446.78;;;13.75;88.36
5812;BME280;2932;52.400;9.558;2023-04-29T01:42:44;100454.25;;;13.93;88.43
5812;BME280;2932;52.400;9.558;2023-04-29T01:45:14;100450.06;;;13.80;88.80
5812;BME280;2932;52.400;9.558;2023-04-29T01:47:45;100456.00;;;13.79;88.82
5812;BME280;2932;52.400;9.558;2023-04-29T01:50:11;100459.22;;;13.58;89.18
5812;BME280;2932;52.400;9.558;2023-04-29T01:52:36;100464.94;;;13.68;89.60
5812;BME280;2932;52.400;9.558;2023-04-29T01:55:02;100472.19;;;13.73;89.58
5812;BME280;2932;52.400;9.558;2023-04-29T01:57:28;100476.72;;;13.58;90.42
5812;BME280;2932;52.400;9.558;2023-04-29T01:59:56;100472.69;;;13.56;90.22
5812;BME280;2932;52.400;9.558;2023-04-29T02:02:22;100471.63;;;13.64;90.45
5812;BME280;2932;52.400;9.558;2023-04-29T02:04:48;100476.06;;;13.46;91.45
5812;BME280;2932;52.400;9.558;2023-04-29T02:07:14;100488.00;;;13.92;90.18
5812;BME280;2932;52.400;9.558;2023-04-29T02:09:40;100486.81;;;13.93;90.08
5812;BME280;2932;52.400;9.558;2023-04-29T02:12:05;100490.25;;;14.09;89.41
5812;BME280;2932;52.400;9.558;2023-04-29T02:14:31;100497.53;;;14.17;88.69
5812;BME280;2932;52.400;9.558;2023-04-29T02:16:58;100502.59;;;14.34;87.65
5812;BME280;2932;52.400;9.558;2023-04-29T02:19:23;100502.97;;;14.33;87.32
5812;BME280;2932;52.400;9.558;2023-04-29T02:21:49;100511.38;;;14.37;86.69
5812;BME280;2932;52.400;9.558;2023-04-29T02:24:14;100511.75;;;14.61;86.36
5812;BME280;2932;52.400;9.558;2023-04-29T02:26:39;100513.91;;;14.72;85.57
5812;BME280;2932;52.400;9.558;2023-04-29T02:29:05;100519.09;;;14.73;84.86
5812;BME280;2932;52.400;9.558;2023-04-29T02:31:30;100527.88;;;14.75;84.47
5812;BME280;2932;52.400;9.558;2023-04-29T02:33:56;100529.09;;;14.78;84.43
5812;BME280;2932;52.400;9.558;2023-04-29T02:36:22;100526.97;;;14.67;84.08
5812;BME280;2932;52.400;9.558;2023-04-29T02:38:51;100531.91;;;14.78;83.87
5812;BME280;2932;52.400;9.558;2023-04-29T02:41:18;100536.13;;;14.68;83.57
5812;BME280;2932;52.400;9.558;2023-04-29T02:43:44;100538.38;;;14.59;83.29
5812;BME280;2932;52.400;9.558;2023-04-29T02:46:09;100546.78;;;14.40;83.16
5812;BME280;2932;52.400;9.558;2023-04-29T02:48:35;100552.00;;;14.41;83.50
5812;BME280;2932;52.400;9.558;2023-04-29T02:51:00;100553.16;;;14.63;83.19
5812;BME280;2932;52.400;9.558;2023-04-29T02:53:26;100554.66;;;14.57;82.51
5812;BME280;2932;52.400;9.558;2023-04-29T02:55:51;100553.97;;;14.41;83.03
5812;BME280;2932;52.400;9.558;2023-04-29T02:58:17;100547.56;;;14.14;83.29
5812;BME280;2932;52.400;9.558;2023-04-29T03:00:42;100554.97;;;14.29;83.09
5812;BME280;2932;52.400;9.558;2023-04-29T03:03:08;100560.41;;;14.45;82.62
5812;BME280;2932;52.400;9.558;2023-04-29T03:05:33;100561.13;;;14.64;82.00
5812;BME280;2932;52.400;9.558;2023-04-29T03:07:59;100568.84;;;14.75;81.54
5812;BME280;2932;52.400;9.558;2023-04-29T03:10:24;100560.66;;;14.59;81.21
5812;BME280;2932;52.400;9.558;2023-04-29T03:12:50;100563.13;;;14.64;81.50
5812;BME280;2932;52.400;9.558;2023-04-29T03:15:15;100568.94;;;14.82;81.03
5812;BME280;2932;52.400;9.558;2023-04-29T03:17:41;100568.59;;;14.87;80.68
5812;BME280;2932;52.400;9.558;2023-04-29T03:20:06;100572.50;;;14.79;80.50
5812;BME280;2932;52.400;9.558;2023-04-29T03:22:34;100576.38;;;14.48;81.54
5812;BME280;2932;52.400;9.558;2023-04-29T03:24:59;100574.63;;;14.62;80.85
5812;BME280;2932;52.400;9.558;2023-04-29T03:27:25;100586.81;;;14.54;81.26
5812;BME280;2932;52.400;9.558;2023-04-29T03:29:50;100582.13;;;14.58;80.79
5812;BME280;2932;52.400;9.558;2023-04-29T03:32:15;100585.84;;;14.43;81.07
5812;BME280;2932;52.400;9.558;2023-04-29T03:34:41;100590.72;;;14.50;80.89
5812;BME280;2932;52.400;9.558;2023-04-29T03:37:06;100595.13;;;14.51;80.89
5812;BME280;2932;52.400;9.558;2023-04-29T03:39:32;100600.38;;;14.56;81.00
5812;BME280;2932;52.400;9.558;2023-04-29T03:41:58;100591.59;;;14.54;80.69
5812;BME280;2932;52.400;9.558;2023-04-29T03:44:24;100595.13;;;14.51;80.34
5812;BME280;2932;52.400;9.558;2023-04-29T03:46:50;100601.19;;;14.33;80.46
5812;BME280;2932;52.400;9.558;2023-04-29T03:49:16;100598.44;;;14.60;79.90
5812;BME280;2932;52.400;9.558;2023-04-29T03:51:41;100605.75;;;14.45;80.19
5812;BME280;2932;52.400;9.558;2023-04-29T03:54:09;100614.28;;;14.56;79.67
5812;BME280;2932;52.400;9.558;2023-04-29T03:56:34;100602.97;;;14.22;80.01
5812;BME280;2932;52.400;9.558;2023-04-29T03:59:00;100612.44;;;14.63;79.41
5812;BME280;2932;52.400;9.558;2023-04-29T04:01:25;100605.81;;;14.49;79.15
5812;BME280;2932;52.400;9.558;2023-04-29T04:03:50;100613.25;;;14.41;79.22
5812;BME280;2932;52.400;9.558;2023-04-29T04:06:16;100618.94;;;14.48;79.56
5812;BME280;2932;52.400;9.558;2023-04-29T04:08:41;100616.41;;;14.62;78.77
5812;BME280;2932;52.400;9.558;2023-04-29T04:11:07;100618.25;;;14.55;79.03
5812;BME280;2932;52.400;9.558;2023-04-29T04:13:34;100625.53;;;14.40;78.79
5812;BME280;2932;52.400;9.558;2023-04-29T04:15:59;100634.69;;;14.41;78.98
5812;BME280;2932;52.400;9.558;2023-04-29T04:18:24;100633.78;;;14.33;79.55
5812;BME280;2932;52.400;9.558;2023-04-29T04:20:50;100643.09;;;14.21;79.63
5812;BME280;2932;52.400;9.558;2023-04-29T04:23:15;100634.75;;;13.98;80.30
5812;BME280;2932;52.400;9.558;2023-04-29T04:25:47;100651.22;;;13.88;81.34
5812;BME280;2932;52.400;9.558;2023-04-29T04:28:13;100652.03;;;13.88;81.27
5812;BME280;2932;52.400;9.558;2023-04-29T04:30:38;100646.84;;;14.10;80.58
5812;BME280;2932;52.400;9.558;2023-04-29T04:33:03;100658.19;;;13.97;81.14
5812;BME280;2932;52.400;9.558;2023-04-29T04:35:30;100658.53;;;13.96;81.38
5812;BME280;2932;52.400;9.558;2023-04-29T04:37:55;100661.00;;;14.01;80.89
5812;BME280;2932;52.400;9.558;2023-04-29T04:40:21;100665.09;;;14.07;80.75
5812;BME280;2932;52.400;9.558;2023-04-29T04:42:47;100674.59;;;14.25;80.21
5812;BME280;2932;52.400;9.558;2023-04-29T04:45:12;100675.63;;;14.17;80.25
5812;BME280;2932;52.400;9.558;2023-04-29T04:47:39;100681.31;;;14.24;80.05
5812;BME280;2932;52.400;9.558;2023-04-29T04:50:06;100686.09;;;14.24;79.88
5812;BME280;2932;52.400;9.558;2023-04-29T04:52:31;100690.72;;;14.16;79.55
5812;BME280;2932;52.400;9.558;2023-04-29T04:54:56;100695.53;;;14.19;79.07
5812;BME280;2932;52.400;9.558;2023-04-29T04:57:22;100695.91;;;14.18;78.93
5812;BME280;2932;52.400;9.558;2023-04-29T04:59:47;100697.16;;;14.01;78.75
5812;BME280;2932;52.400;9.558;2023-04-29T05:02:12;100706.47;;;14.09;78.56
5812;BME280;2932;52.400;9.558;2023-04-29T05:04:38;100717.59;;;14.09;78.51
5812;BME280;2932;52.400;9.558;2023-04-29T05:07:03;100715.69;;;14.13;78.87
5812;BME280;2932;52.400;9.558;2023-04-29T05:09:28;100724.09;;;14.16;78.56
5812;BME280;2932;52.400;9.558;2023-04-29T05:11:57;100713.91;;;14.43;77.97
5812;BME280;2932;52.400;9.558;2023-04-29T05:14:24;100722.47;;;14.34;77.78
5812;BME280;2932;52.400;9.558;2023-04-29T05:16:49;100723.38;;;14.19;77.72
5812;BME280;2932;52.400;9.558;2023-04-29T05:19:15;100730.78;;;13.92;77.92
5812;BME280;2932;52.400;9.558;2023-04-29T05:21:40;100737.00;;;13.86;77.78
5812;BME280;2932;52.400;9.558;2023-04-29T05:24:06;100737.25;;;13.61;78.53
5812;BME280;2932;52.400;9.558;2023-04-29T05:26:31;100739.63;;;13.79;78.32
5812;BME280;2932;52.400;9.558;2023-04-29T05:28:56;100743.00;;;14.07;77.86
5812;BME280;2932;52.400;9.558;2023-04-29T05:31:22;100751.78;;;14.09;77.15
5812;BME280;2932;52.400;9.558;2023-04-29T05:33:47;100751.78;;;14.28;76.32
5812;BME280;2932;52.400;9.558;2023-04-29T05:36:13;100752.00;;;14.39;75.71
5812;BME280;2932;52.400;9.558;2023-04-29T05:38:38;100761.44;;;14.15;76.16
5812;BME280;2932;52.400;9.558;2023-04-29T05:41:04;100763.94;;;14.01;76.84
5812;BME280;2932;52.400;9.558;2023-04-29T05:43:29;100768.19;;;14.14;76.75
5812;BME280;2932;52.400;9.558;2023-04-29T05:45:54;100770.53;;;14.12;76.67
5812;BME280;2932;52.400;9.558;2023-04-29T05:48:20;100777.13;;;14.23;76.64
5812;BME280;2932;52.400;9.558;2023-04-29T05:50:45;100773.47;;;14.19;76.20
5812;BME280;2932;52.400;9.558;2023-04-29T05:53:12;100782.38;;;14.09;76.37
5812;BME280;2932;52.400;9.558;2023-04-29T05:55:38;100782.59;;;14.00;76.67
5812;BME280;2932;52.400;9.558;2023-04-29T05:58:03;100784.44;;;13.93;77.22
5812;BME280;2932;52.400;9.558;2023-04-29T06:00:29;100789.13;;;14.08;76.76
5812;BME280;2932;52.400;9.558;2023-04-29T06:02:55;100795.22;;;13.94;77.05
5812;BME280;2932;52.400;9.558;2023-04-29T06:05:21;100796.66;;;13.88;76.97
5812;BME280;2932;52.400;9.558;2023-04-29T06:07:46;100793.81;;;13.85;77.11
5812;BME280;2932;52.400;9.558;2023-04-29T06:10:12;100792.63;;;13.86;77.41
5812;BME280;2932;52.400;9.558;2023-04-29T06:12:37;100803.56;;;13.94;77.03
5812;BME280;2932;52.400;9.558;2023-04-29T06:15:02;100805.81;;;14.08;77.17
5812;BME280;2932;52.400;9.558;2023-04-29T06:17:28;100810.06;;;14.02;76.95
5812;BME280;2932;52.400;9.558;2023-04-29T06:19:56;100805.53;;;14.13;76.98
5812;BME280;2932;52.400;9.558;2023-04-29T06:22:22;100814.63;;;14.29;76.49
5812;BME280;2932;52.400;9.558;2023-04-29T06:24:47;100817.56;;;14.56;75.51
5812;BME280;2932;52.400;9.558;2023-04-29T06:27:14;100819.03;;;14.50;75.54
5812;BME280;2932;52.400;9.558;2023-04-29T06:29:40;100833.16;;;14.60;75.47
5812;BME280;2932;52.400;9.558;2023-04-29T06:32:06;100840.63;;;14.76;74.97
5812;BME280;2932;52.400;9.558;2023-04-29T06:34:31;100837.28;;;14.89;74.34
5812;BME280;2932;52.400;9.558;2023-04-29T06:36:57;100837.53;;;15.04;73.97
5812;BME280;2932;52.400;9.558;2023-04-29T06:39:22;100848.81;;;15.11;73.58
5812;BME280;2932;52.400;9.558;2023-04-29T06:41:47;100848.84;;;14.91;73.18
5812;BME280;2932;52.400;9.558;2023-04-29T06:44:13;100856.34;;;14.87;74.05
5812;BME280;2932;52.400;9.558;2023-04-29T06:46:38;100859.25;;;14.94;73.75
5812;BME280;2932;52.400;9.558;2023-04-29T06:49:03;100861.31;;;14.97;73.75
5812;BME280;2932;52.400;9.558;2023-04-29T06:51:29;100864.38;;;15.12;73.20
5812;BME280;2932;52.400;9.558;2023-04-29T06:53:56;100866.06;;;15.20;72.64
5812;BME280;2932;52.400;9.558;2023-04-29T06:56:24;100875.66;;;15.19;72.51
5812;BME280;2932;52.400;9.558;2023-04-29T06:58:49;100873.38;;;15.28;72.70
5812;BME280;2932;52.400;9.558;2023-04-29T07:01:14;100892.09;;;15.05;72.34
5812;BME280;2932;52.400;9.558;2023-04-29T07:03:40;100884.25;;;15.10;72.75
5812;BME280;2932;52.400;9.558;2023-04-29T07:06:06;100897.50;;;15.40;72.13
5812;BME280;2932;52.400;9.558;2023-04-29T07:08:31;100901.16;;;15.44;72.23
5812;BME280;2932;52.400;9.558;2023-04-29T07:10:57;100899.66;;;15.50;72.44
5812;BME280;2932;52.400;9.558;2023-04-29T07:13:23;100902.41;;;15.69;71.86
5812;BME280;2932;52.400;9.558;2023-04-29T07:15:49;100915.44;;;16.14;71.35
5812;BME280;2932;52.400;9.558;2023-04-29T07:18:15;100913.69;;;15.76;70.97
5812;BME280;2932;52.400;9.558;2023-04-29T07:20:40;100918.66;;;16.16;70.40
5812;BME280;2932;52.400;9.558;2023-04-29T07:23:06;100926.06;;;16.31;69.18
5812;BME280;2932;52.400;9.558;2023-04-29T07:25:31;100935.53;;;16.23;68.77
5812;BME280;2932;52.400;9.558;2023-04-29T07:27:58;100933.78;;;16.42;68.90
5812;BME280;2932;52.400;9.558;2023-04-29T07:30:23;100935.59;;;16.57;68.56
5812;BME280;2932;52.400;9.558;2023-04-29T07:32:49;100940.53;;;16.67;68.05
5812;BME280;2932;52.400;9.558;2023-04-29T07:35:14;100940.22;;;16.72;67.19
5812;BME280;2932;52.400;9.558;2023-04-29T07:37:39;100949.19;;;16.88;67.79
5812;BME280;2932;52.400;9.558;2023-04-29T07:40:06;100953.38;;;17.05;67.70
5812;BME280;2932;52.400;9.558;2023-04-29T07:42:31;100957.34;;;17.04;67.10
5812;BME280;2932;52.400;9.558;2023-04-29T07:44:57;100962.09;;;17.00;66.40
5812;BME280;2932;52.400;9.558;2023-04-29T07:47:22;100959.09;;;17.16;66.04
5812;BME280;2932;52.400;9.558;2023-04-29T07:49:48;100963.16;;;16.88;66.47
5812;BME280;2932;52.400;9.558;2023-04-29T07:52:13;100970.97;;;17.06;66.43
5812;BME280;2932;52.400;9.558;2023-04-29T07:54:38;100970.03;;;17.31;66.31
5812;BME280;2932;52.400;9.558;2023-04-29T07:57:03;100977.84;;;17.52;65.75
5812;BME280;2932;52.400;9.558;2023-04-29T07:59:30;100979.94;;;17.62;64.59
5812;BME280;2932;52.400;9.558;2023-04-29T08:01:55;100983.44;;;17.52;64.45
5812;BME280;2932;52.400;9.558;2023-04-29T08:04:21;100984.97;;;17.46;64.31
5812;BME280;2932;52.400;9.558;2023-04-29T08:06:46;100991.75;;;17.45;64.35
5812;BME280;2932;52.400;9.558;2023-04-29T08:09:13;100984.78;;;17.28;64.19
5812;BME280;2932;52.400;9.558;2023-04-29T08:11:38;100999.88;;;17.20;64.33
5812;BME280;2932;52.400;9.558;2023-04-29T08:14:04;100996.00;;;17.32;64.03
5812;BME280;2932;52.400;9.558;2023-04-29T08:16:30;100994.81;;;17.33;64.11
5812;BME280;2932;52.400;9.558;2023-04-29T08:18:56;100993.63;;;17.34;63.67
5812;BME280;2932;52.400;9.558;2023-04-29T08:21:21;101000.59;;;17.47;63.97
5812;BME280;2932;52.400;9.558;2023-04-29T08:23:47;101005.22;;;17.32;63.98
5812;BME280;2932;52.400;9.558;2023-04-29T08:26:12;101002.53;;;17.43;63.17
5812;BME280;2932;52.400;9.558;2023-04-29T08:28:38;101009.00;;;17.51;63.44
5812;BME280;2932;52.400;9.558;2023-04-29T08:31:04;101006.59;;;17.49;63.24
5812;BME280;2932;52.400;9.558;2023-04-29T08:33:35;101011.91;;;17.61;62.85
5812;BME280;2932;52.400;9.558;2023-04-29T08:36:01;101007.78;;;17.85;62.53
5812;BME280;2932;52.400;9.558;2023-04-29T08:38:28;101010.59;;;17.89;62.77
5812;BME280;2932;52.400;9.558;2023-04-29T08:40:54;101011.53;;;18.07;62.97
5812;BME280;2932;52.400;9.558;2023-04-29T08:43:20;101010.41;;;18.15;62.53
5812;BME280;2932;52.400;9.558;2023-04-29T08:45:47;101018.88;;;18.22;62.01
5812;BME280;2932;52.400;9.558;2023-04-29T08:48:15;101024.09;;;18.24;61.34
5812;BME280;2932;52.400;9.558;2023-04-29T08:50:41;101029.13;;;18.04;60.57
5812;BME280;2932;52.400;9.558;2023-04-29T08:53:07;101036.25;;;17.94;60.95
5812;BME280;2932;52.400;9.558;2023-04-29T08:55:40;101034.88;;;17.78;61.03
5812;BME280;2932;52.400;9.558;2023-04-29T08:58:07;101038.75;;;17.66;61.20
5812;BME280;2932;52.400;9.558;2023-04-29T09:00:34;101037.69;;;17.78;61.11
5812;BME280;2932;52.400;9.558;2023-04-29T09:03:00;101040.75;;;17.65;61.93
5812;BME280;2932;52.400;9.558;2023-04-29T09:05:29;101043.09;;;17.63;61.37
5812;BME280;2932;52.400;9.558;2023-04-29T09:07:56;101047.28;;;17.77;61.60
5812;BME280;2932;52.400;9.558;2023-04-29T09:10:24;101053.38;;;17.86;61.30
5812;BME280;2932;52.400;9.558;2023-04-29T09:12:50;101051.25;;;17.76;61.10
5812;BME280;2932;52.400;9.558;2023-04-29T09:15:15;101059.47;;;17.61;60.76
5812;BME280;2932;52.400;9.558;2023-04-29T09:17:46;101062.25;;;17.58;61.43
5812;BME280;2932;52.400;9.558;2023-04-29T09:22:53;101068.81;;;17.39;61.87
5812;BME280;2932;52.400;9.558;2023-04-29T09:25:19;101074.66;;;17.27;61.75
5812;BME280;2932;52.400;9.558;2023-04-29T09:27:45;101076.16;;;17.17;61.81
5812;BME280;2932;52.400;9.558;2023-04-29T09:30:11;101079.78;;;17.21;61.62
5812;BME280;2932;52.400;9.558;2023-04-29T09:32:38;101083.75;;;17.20;61.99
5812;BME280;2932;52.400;9.558;2023-04-29T09:35:23;101088.38;;;17.06;62.36
5812;BME280;2932;52.400;9.558;2023-04-29T09:37:50;101081.28;;;17.12;61.86
5812;BME280;2932;52.400;9.558;2023-04-29T09:42:54;101098.81;;;17.09;60.98
5812;BME280;2932;52.400;9.558;2023-04-29T09:45:36;101092.63;;;17.26;61.69
5812;BME280;2932;52.400;9.558;2023-04-29T09:48:05;101102.81;;;17.41;62.13
5812;BME280;2932;52.400;9.558;2023-04-29T09:50:33;101101.88;;;17.63;61.60
5812;BME280;2932;52.400;9.558;2023-04-29T09:52:58;101105.31;;;17.83;60.68
5812;BME280;2932;52.400;9.558;2023-04-29T09:55:24;101094.28;;;17.97;60.09
5812;BME280;2932;52.400;9.558;2023-04-29T09:57:51;101106.28;;;17.98;59.95
5812;BME280;2932;52.400;9.558;2023-04-29T10:00:17;101097.66;;;18.17;59.89
5812;BME280;2932;52.400;9.558;2023-04-29T10:02:45;101106.28;;;18.46;59.90
5812;BME280;2932;52.400;9.558;2023-04-29T10:05:13;101110.34;;;18.52;59.39
5812;BME280;2932;52.400;9.558;2023-04-29T10:07:39;101105.41;;;18.86;58.01
5812;BME280;2932;52.400;9.558;2023-04-29T10:10:06;101102.06;;;19.35;56.35
5812;BME280;2932;52.400;9.558;2023-04-29T10:12:34;101098.56;;;19.52;55.47
5812;BME280;2932;52.400;9.558;2023-04-29T10:15:03;101104.28;;;19.88;54.99
5812;BME280;2932;52.400;9.558;2023-04-29T10:17:42;101097.09;;;20.12;54.00
5812;BME280;2932;52.400;9.558;2023-04-29T10:20:12;101101.53;;;20.45;53.59
5812;BME280;2932;52.400;9.558;2023-04-29T10:22:45;101111.53;;;20.85;54.53
5812;BME280;2932;52.400;9.558;2023-04-29T10:25:12;101103.44;;;21.22;53.14
5812;BME280;2932;52.400;9.558;2023-04-29T10:27:41;101109.94;;;20.91;53.05
5812;BME280;2932;52.400;9.558;2023-04-29T10:30:11;101109.97;;;20.59;52.30
5812;BME280;2932;52.400;9.558;2023-04-29T10:32:45;101099.50;;;20.88;52.97
5812;BME280;2932;52.400;9.558;2023-04-29T10:35:13;101104.28;;;21.09;51.95
5812;BME280;2932;52.400;9.558;2023-04-29T10:37:43;101109.88;;;21.16;51.77
5812;BME280;2932;52.400;9.558;2023-04-29T10:51:26;101119.22;;;20.70;51.43
5812;BME280;2932;52.400;9.558;2023-04-29T10:53:19;101112.75;;;20.84;51.45
5812;BME280;2932;52.400;9.558;2023-04-29T10:55:52;101109.53;;;20.89;51.22
5812;BME280;2932;52.400;9.558;2023-04-29T11:01:02;101107.56;;;20.61;52.07
5812;BME280;2932;52.400;9.558;2023-04-29T11:06:13;101113.13;;;19.90;52.33
5812;BME280;2932;52.400;9.558;2023-04-29T11:08:38;101116.31;;;19.88;53.22
5812;BME280;2932;52.400;9.558;2023-04-29T11:11:04;101113.81;;;19.62;53.72
5812;BME280;2932;52.400;9.558;2023-04-29T11:13:31;101116.91;;;19.36;53.90
5812;BME280;2932;52.400;9.558;2023-04-29T11:16:08;101114.56;;;19.48;54.67
5812;BME280;2932;52.400;9.558;2023-04-29T11:18:36;101101.88;;;19.86;54.52
5812;BME280;2932;52.400;9.558;2023-04-29T11:23:30;101107.13;;;20.09;53.00
5812;BME280;2932;52.400;9.558;2023-04-29T11:25:59;101105.56;;;20.37;52.33
5812;BME280;2932;52.400;9.558;2023-04-29T11:28:26;101109.59;;;20.60;51.98
5812;BME280;2932;52.400;9.558;2023-04-29T11:30:52;101106.72;;;20.85;50.84
5812;BME280;2932;52.400;9.558;2023-04-29T11:33:20;101113.16;;;20.86;50.44
5812;BME280;2932;52.400;9.558;2023-04-29T11:35:46;101107.94;;;20.81;50.31
5812;BME280;2932;52.400;9.558;2023-04-29T11:38:14;101114.81;;;20.76;50.79
5812;BME280;2932;52.400;9.558;2023-04-29T11:40:49;101117.22;;;20.74;51.34
5812;BME280;2932;52.400;9.558;2023-04-29T11:43:18;101115.59;;;20.66;50.79
5812;BME280;2932;52.400;9.558;2023-04-29T11:45:45;101118.81;;;20.36;51.42
5812;BME280;2932;52.400;9.558;2023-04-29T11:48:24;101122.41;;;20.37;51.16
5812;BME280;2932;52.400;9.558;2023-04-29T11:50:56;101134.50;;;20.69;51.17
5812;BME280;2932;52.400;9.558;2023-04-29T11:53:25;101122.66;;;21.45;50.24
5812;BME280;2932;52.400;9.558;2023-04-29T11:55:55;101121.19;;;20.91;48.52
5812;BME280;2932;52.400;9.558;2023-04-29T11:58:22;101121.19;;;20.87;49.43
5812;BME280;2932;52.400;9.558;2023-04-29T12:00:48;101126.38;;;21.17;49.49
5812;BME280;2932;52.400;9.558;2023-04-29T12:05:54;101137.06;;;21.61;48.87
5812;BME280;2932;52.400;9.558;2023-04-29T12:08:23;101139.13;;;21.57;48.90
5812;BME280;2932;52.400;9.558;2023-04-29T12:10:50;101136.03;;;21.06;49.44
5812;BME280;2932;52.400;9.558;2023-04-29T12:13:16;101144.09;;;20.89;50.05
5812;BME280;2932;52.400;9.558;2023-04-29T12:15:44;101145.34;;;20.78;50.30
5812;BME280;2932;52.400;9.558;2023-04-29T12:18:11;101146.53;;;20.55;51.21
5812;BME280;2932;52.400;9.558;2023-04-29T12:20:37;101150.94;;;20.60;51.96
5812;BME280;2932;52.400;9.558;2023-04-29T12:25:38;101161.31;;;20.13;51.04
5812;BME280;2932;52.400;9.558;2023-04-29T12:28:03;101157.28;;;20.11;50.87
5812;BME280;2932;52.400;9.558;2023-04-29T12:30:29;101157.69;;;20.13;51.47
5812;BME280;2932;52.400;9.558;2023-04-29T12:32:54;101144.53;;;20.63;53.76
5812;BME280;2932;52.400;9.558;2023-04-29T12:35:20;101153.34;;;20.90;52.03
5812;BME280;2932;52.400;9.558;2023-04-29T12:37:49;101151.63;;;21.42;50.41
5812;BME280;2932;52.400;9.558;2023-04-29T12:40:15;101151.38;;;21.99;49.60
5812;BME280;2932;52.400;9.558;2023-04-29T12:42:42;101151.25;;;22.24;48.87
5812;BME280;2932;52.400;9.558;2023-04-29T12:45:33;101165.47;;;21.99;49.41
5812;BME280;2932;52.400;9.558;2023-04-29T12:47:59;101152.34;;;21.60;48.54
5812;BME280;2932;52.400;9.558;2023-04-29T12:52:57;101154.91;;;21.26;50.28
5812;BME280;2932;52.400;9.558;2023-04-29T12:55:23;101157.38;;;20.78;49.65
5812;BME280;2932;52.400;9.558;2023-04-29T12:57:48;101152.56;;;20.68;50.62
5812;BME280;2932;52.400;9.558;2023-04-29T13:00:14;101158.19;;;20.75;50.51
5812;BME280;2932;52.400;9.558;2023-04-29T13:02:40;101154.16;;;20.73;50.50
5812;BME280;2932;52.400;9.558;2023-04-29T13:05:06;101156.59;;;20.71;50.50
5812;BME280;2932;52.400;9.558;2023-04-29T13:07:32;101156.16;;;20.54;50.42
5812;BME280;2932;52.400;9.558;2023-04-29T13:09:58;101165.78;;;20.32;49.81
5812;BME280;2932;52.400;9.558;2023-04-29T13:12:23;101171.75;;;20.09;49.87
5812;BME280;2932;52.400;9.558;2023-04-29T13:14:48;101170.13;;;20.05;50.44
5812;BME280;2932;52.400;9.558;2023-04-29T13:17:15;101169.31;;;19.97;51.19
5812;BME280;2932;52.400;9.558;2023-04-29T13:19:40;101157.22;;;19.82;51.28
5812;BME280;2932;52.400;9.558;2023-04-29T13:22:06;101161.28;;;19.95;51.67
5812;BME280;2932;52.400;9.558;2023-04-29T13:24:31;101161.66;;;19.87;51.30
5812;BME280;2932;52.400;9.558;2023-04-29T13:26:59;101165.13;;;19.52;51.14
5812;BME280;2932;52.400;9.558;2023-04-29T13:29:27;101166.38;;;19.58;50.87
5812;BME280;2932;52.400;9.558;2023-04-29T13:31:52;101167.56;;;19.60;50.96
5812;BME280;2932;52.400;9.558;2023-04-29T13:34:17;101166.81;;;19.71;51.36
5812;BME280;2932;52.400;9.558;2023-04-29T13:36:45;101175.31;;;19.92;51.48
5812;BME280;2932;52.400;9.558;2023-04-29T13:39:11;101176.09;;;19.89;51.42